Time;durP1;ratioP1;P1;durP2;ratioP2;P2;SDS_P1;SDS_P2;PMS_P1;PMS_P2;Temp;Humidity;BMP_temperature;BMP_pressure;BME280_temperature;BME280_humidity;BME280_pressure;Samples;Min_cycle;Max_cycle;Signal;HPM_P1;HPM_P2
2020/12/06 00:02:11;;;;;;;38.25;21.42;;;;;;;1.73;88.68;94755.00;5055759;28;20056;-73
2020/12/06 00:04:37;;;;;;;41.00;22.10;;;;;;;1.75;88.83;94752.22;5055211;28;20041;-73
2020/12/06 00:07:04;;;;;;;43.53;22.83;;;;;;;1.77;88.70;94745.84;5055290;28;20044;-73
2020/12/06 00:09:30;;;;;;;38.83;21.15;;;;;;;1.79;88.64;94738.69;5055699;28;20040;-73
2020/12/06 00:11:57;;;;;;;37.72;20.88;;;;;;;1.80;88.63;94744.63;5055237;28;20037;-73
2020/12/06 00:14:24;;;;;;;35.85;19.92;;;;;;;1.81;88.61;94747.03;5055293;28;20045;-73
2020/12/06 00:16:50;;;;;;;39.13;20.15;;;;;;;1.83;88.79;94744.25;5054746;28;20044;-73
2020/12/06 00:19:16;;;;;;;40.28;21.08;;;;;;;1.84;88.78;94725.13;5055114;28;20044;-73
2020/12/06 00:21:44;;;;;;;38.78;21.55;;;;;;;1.85;88.75;94720.75;5055167;28;20041;-74
2020/12/06 00:24:11;;;;;;;32.70;19.35;;;;;;;1.86;88.88;94720.56;5055304;28;20040;-73
2020/12/06 00:26:37;;;;;;;36.05;19.70;;;;;;;1.88;88.57;94713.41;5055131;28;20104;-73
2020/12/06 00:29:03;;;;;;;37.60;20.58;;;;;;;1.86;88.61;94709.44;5055421;28;20040;-73
2020/12/06 00:31:30;;;;;;;37.40;20.05;;;;;;;1.82;88.67;94707.25;5054844;28;20044;-73
2020/12/06 00:33:56;;;;;;;35.88;19.67;;;;;;;1.81;88.65;94705.69;5055397;28;20041;-73
2020/12/06 00:36:22;;;;;;;34.85;19.98;;;;;;;1.82;88.66;94699.50;5053656;28;20053;-73
2020/12/06 00:38:48;;;;;;;36.75;21.85;;;;;;;1.83;88.59;94685.59;5054097;28;20052;-73
2020/12/06 00:41:16;;;;;;;38.03;21.33;;;;;;;1.83;88.66;94685.59;5054579;28;20489;-73
2020/12/06 00:43:43;;;;;;;41.53;22.38;;;;;;;1.80;88.63;94670.47;5054748;28;20041;-73
2020/12/06 00:46:09;;;;;;;45.30;23.90;;;;;;;1.77;88.56;94657.19;5053879;28;20044;-73
2020/12/06 00:48:36;;;;;;;47.70;24.42;;;;;;;1.77;88.51;94650.22;5054574;28;20037;-73
2020/12/06 00:51:02;;;;;;;49.25;25.27;;;;;;;1.76;88.76;94646.03;5054402;28;20040;-73
2020/12/06 00:53:28;;;;;;;46.15;23.00;;;;;;;1.75;88.71;94623.81;5054643;28;20485;-73
2020/12/06 00:55:54;;;;;;;44.17;22.48;;;;;;;1.75;88.80;94623.81;5054355;28;20029;-73
2020/12/06 00:58:21;;;;;;;52.13;24.55;;;;;;;1.75;88.90;94630.78;5054782;28;20500;-73
2020/12/06 01:00:47;;;;;;;48.33;24.70;;;;;;;1.74;88.89;94635.16;5054515;28;20059;-73
2020/12/06 01:03:14;;;;;;;59.50;26.48;;;;;;;1.73;89.03;94619.84;5053883;28;20048;-71
2020/12/06 01:05:40;;;;;;;51.67;25.20;;;;;;;1.71;88.99;94638.13;5053267;28;20041;-74
2020/12/06 01:08:06;;;;;;;45.45;22.48;;;;;;;1.69;89.08;94645.31;5054605;28;20041;-74
2020/12/06 01:10:32;;;;;;;54.70;25.88;;;;;;;1.69;89.15;94645.31;5054232;28;20385;-74
2020/12/06 01:12:59;;;;;;;53.72;23.77;;;;;;;1.72;89.18;94662.19;5054396;28;20481;-74
2020/12/06 01:15:28;;;;;;;55.67;26.02;;;;;;;1.74;89.17;94670.50;5054195;28;20036;-74
2020/12/06 01:17:54;;;;;;;58.38;24.33;;;;;;;1.75;89.21;94688.41;5054137;28;20048;-74
2020/12/06 01:20:21;;;;;;;48.22;24.23;;;;;;;1.76;89.21;94699.53;5053856;28;20058;-74
2020/12/06 01:22:47;;;;;;;48.70;23.33;;;;;;;1.78;89.47;94703.50;5054144;28;20048;-75
2020/12/06 01:25:13;;;;;;;69.15;29.38;;;;;;;1.82;89.21;94709.84;5053104;28;20056;-74
2020/12/06 01:27:39;;;;;;;52.58;26.08;;;;;;;1.81;89.15;94704.88;5054100;28;20037;-75
2020/12/06 01:30:06;;;;;;;52.80;26.48;;;;;;;1.82;89.33;94715.00;5053871;28;20033;-75
2020/12/06 01:32:32;;;;;;;50.90;26.13;;;;;;;1.85;89.32;94719.00;5035914;28;20037;-75
2020/12/06 01:35:01;;;;;;;53.13;27.70;;;;;;;1.88;89.19;94700.47;5053006;28;20059;-75
2020/12/06 01:37:27;;;;;;;53.83;27.65;;;;;;;1.89;89.30;94681.41;5053732;28;20052;-75
2020/12/06 01:39:54;;;;;;;62.30;28.95;;;;;;;1.88;89.16;94681.59;5052527;28;20425;-75
2020/12/06 01:42:20;;;;;;;57.10;27.13;;;;;;;1.87;89.17;94680.00;5053626;28;20044;-75
2020/12/06 01:44:46;;;;;;;61.35;29.25;;;;;;;1.85;89.00;94685.38;5052395;28;20045;-75
2020/12/06 01:47:13;;;;;;;68.22;29.48;;;;;;;1.85;89.02;94687.16;5053569;28;20052;-75
2020/12/06 01:49:40;;;;;;;62.25;30.08;;;;;;;1.86;89.23;94696.50;5053312;28;20037;-75
2020/12/06 01:52:07;;;;;;;56.20;27.45;;;;;;;1.85;88.96;94700.09;5053682;28;20036;-74
2020/12/06 01:54:35;;;;;;;57.67;27.00;;;;;;;1.85;89.24;94703.47;5052650;28;20053;-75
2020/12/06 01:57:03;;;;;;;60.03;29.75;;;;;;;1.86;89.16;94691.34;5053589;28;20053;-75
2020/12/06 01:59:30;;;;;;;59.67;27.60;;;;;;;1.89;89.02;94688.34;5041905;28;20068;-74
2020/12/06 02:02:02;;;;;;;59.63;27.77;;;;;;;1.88;89.19;94684.97;5053432;28;20393;-75
2020/12/06 02:04:30;;;;;;;63.90;28.50;;;;;;;1.85;89.19;94687.97;5053396;28;20037;-75
2020/12/06 02:06:57;;;;;;;65.80;27.13;;;;;;;1.79;89.17;94689.59;5053332;28;20033;-75
2020/12/06 02:09:26;;;;;;;71.25;30.45;;;;;;;1.75;89.12;94687.63;5052192;28;20405;-75
2020/12/06 02:11:52;;;;;;;132.10;39.83;;;;;;;1.68;89.26;94679.91;5053384;28;20037;-75
2020/12/06 02:14:19;;;;;;;92.97;32.90;;;;;;;1.60;89.33;94686.09;5051465;28;20048;-75
2020/12/06 02:16:46;;;;;;;72.05;29.42;;;;;;;1.57;89.43;94690.88;5052956;28;20029;-76
2020/12/06 02:19:13;;;;;;;61.08;27.38;;;;;;;1.56;90.08;94687.50;5053552;28;20044;-75
2020/12/06 02:21:41;;;;;;;64.68;27.80;;;;;;;1.58;89.94;94689.88;5053113;28;20480;-75
2020/12/06 02:24:08;;;;;;;60.85;25.85;;;;;;;1.60;90.22;94678.34;5053432;28;20044;-75
2020/12/06 02:26:48;;;;;;;55.95;25.33;;;;;;;1.65;90.22;94661.44;5052963;28;20041;-75
2020/12/06 02:29:15;;;;;;;61.25;25.83;;;;;;;1.63;89.88;94651.28;5052417;28;20505;-75
2020/12/06 02:31:42;;;;;;;88.25;30.50;;;;;;;1.62;90.03;94639.38;5052860;28;20025;-75
2020/12/06 02:34:09;;;;;;;59.22;25.25;;;;;;;1.64;90.20;94627.06;5034825;28;20044;-75
2020/12/06 02:36:36;;;;;;;66.28;26.95;;;;;;;1.63;90.09;94610.75;5053044;28;20048;-75
2020/12/06 02:39:07;;;;;;;62.97;25.83;;;;;;;1.63;90.29;94599.63;5052289;28;20520;-75
2020/12/06 02:41:45;;;;;;;76.32;28.70;;;;;;;1.65;90.34;94602.78;5051973;28;20041;-75
2020/12/06 02:44:12;;;;;;;61.05;25.80;;;;;;;1.68;90.17;94633.41;5053068;28;20045;-75
2020/12/06 02:46:40;;;;;;;48.97;22.98;;;;;;;1.70;90.17;94626.22;5035223;28;20048;-75
2020/12/06 02:49:07;;;;;;;56.28;24.45;;;;;;;1.71;90.25;94621.84;5035127;28;20044;-75
2020/12/06 02:51:34;;;;;;;52.53;22.73;;;;;;;1.71;90.36;94614.88;5051860;28;20041;-75
2020/12/06 02:54:01;;;;;;;52.08;23.75;;;;;;;1.70;90.36;94631.41;5052573;28;20041;-75
2020/12/06 02:56:27;;;;;;;46.17;21.23;;;;;;;1.73;90.28;94633.56;5052543;28;20048;-75
2020/12/06 02:58:53;;;;;;;48.85;22.60;;;;;;;1.75;90.22;94641.09;5053294;28;20045;-75
2020/12/06 03:01:19;;;;;;;46.65;21.95;;;;;;;1.76;90.03;94627.19;5052712;28;20398;-75
2020/12/06 03:03:46;;;;;;;44.45;21.85;;;;;;;1.77;90.09;94626.97;5052974;28;20041;-75
2020/12/06 03:06:12;;;;;;;46.10;21.77;;;;;;;1.78;90.00;94625.19;5034818;28;20045;-76
2020/12/06 03:08:39;;;;;;;42.40;20.77;;;;;;;1.81;90.11;94611.84;5052713;28;20056;-75
2020/12/06 03:11:06;;;;;;;43.58;20.60;;;;;;;1.82;90.17;94621.97;5052562;28;20037;-75
2020/12/06 03:13:33;;;;;;;43.35;20.73;;;;;;;1.85;89.76;94625.94;5052689;28;20037;-75
2020/12/06 03:16:00;;;;;;;36.58;19.30;;;;;;;1.83;89.73;94630.53;5052846;28;20033;-75
2020/12/06 03:18:26;;;;;;;38.75;19.60;;;;;;;1.81;89.75;94627.38;5034863;28;20045;-76
2020/12/06 03:20:52;;;;;;;42.42;20.13;;;;;;;1.77;89.85;94621.81;5034856;28;20037;-76
2020/12/06 03:23:18;;;;;;;36.65;19.40;;;;;;;1.73;89.85;94628.38;5052359;28;20037;-76
2020/12/06 03:25:44;;;;;;;38.88;20.38;;;;;;;1.72;90.03;94613.09;5052963;28;20061;-76
2020/12/06 03:28:11;;;;;;;43.13;19.02;;;;;;;1.71;89.80;94621.84;5056223;28;20477;-76
2020/12/06 03:30:37;;;;;;;52.00;22.75;;;;;;;1.69;90.02;94627.22;5056455;28;20496;-76
2020/12/06 03:33:03;;;;;;;46.03;20.92;;;;;;;1.66;89.97;94650.09;5056070;28;20032;-76
2020/12/06 03:35:29;;;;;;;45.83;21.63;;;;;;;1.64;90.18;94645.16;5055752;28;20489;-76
2020/12/06 03:37:55;;;;;;;35.50;19.17;;;;;;;1.65;90.26;94638.19;5056231;28;20354;-75
2020/12/06 03:40:21;;;;;;;40.85;20.55;;;;;;;1.66;90.42;94627.66;5055981;28;20033;-76
2020/12/06 03:42:52;;;;;;;41.88;21.17;;;;;;;1.71;90.56;94617.47;5037990;28;20048;-75
2020/12/06 03:45:19;;;;;;;44.28;21.48;;;;;;;1.70;90.32;94605.56;5055974;28;20496;-76
2020/12/06 03:47:46;;;;;;;38.28;19.75;;;;;;;1.71;90.22;94614.09;5055926;28;20037;-75
2020/12/06 03:50:13;;;;;;;43.08;21.33;;;;;;;1.71;90.49;94627.03;5055771;28;20427;-76
2020/12/06 03:52:39;;;;;;;47.67;22.67;;;;;;;1.70;90.52;94636.56;5055402;28;20040;-76
2020/12/06 03:55:05;;;;;;;50.17;23.08;;;;;;;1.70;90.51;94646.09;5055498;28;20041;-75
2020/12/06 03:57:31;;;;;;;43.63;21.27;;;;;;;1.70;90.54;94636.56;5064530;28;20048;-76
2020/12/06 03:59:58;;;;;;;50.17;23.30;;;;;;;1.70;90.56;94618.47;5075501;28;20048;-76
2020/12/06 04:02:24;;;;;;;51.90;22.05;;;;;;;1.72;90.54;94618.25;5075575;28;20048;-76
2020/12/06 04:04:51;;;;;;;46.33;21.20;;;;;;;1.69;90.48;94606.53;5075074;28;20044;-75
2020/12/06 04:07:17;;;;;;;48.00;22.70;;;;;;;1.67;90.44;94607.75;5074068;28;20041;-75
2020/12/06 04:09:43;;;;;;;49.13;21.65;;;;;;;1.66;90.56;94613.91;5075164;28;20048;-76
2020/12/06 04:12:09;;;;;;;47.60;22.67;;;;;;;1.67;90.71;94611.13;5073962;28;20400;-75
2020/12/06 04:14:35;;;;;;;49.85;22.05;;;;;;;1.69;90.82;94621.25;5075506;28;20397;-75
2020/12/06 04:17:02;;;;;;;44.88;21.38;;;;;;;1.71;90.58;94619.25;5075335;28;20032;-76
2020/12/06 04:19:28;;;;;;;51.88;22.65;;;;;;;1.74;90.78;94634.34;5075135;28;20040;-76
2020/12/06 04:21:54;;;;;;;42.00;20.05;;;;;;;1.75;90.46;94639.31;5075065;28;20473;-76
2020/12/06 04:24:20;;;;;;;45.22;21.02;;;;;;;1.78;90.64;94648.44;5075461;28;20055;-76
2020/12/06 04:26:46;;;;;;;43.30;20.10;;;;;;;1.82;90.72;94647.81;5074051;28;20032;-76
2020/12/06 04:29:13;;;;;;;36.50;18.95;;;;;;;1.86;90.64;94631.91;5075027;28;20040;-75
2020/12/06 04:31:39;;;;;;;43.45;20.10;;;;;;;1.88;90.54;94628.09;5074549;28;20059;-76
2020/12/06 04:34:05;;;;;;;43.75;21.48;;;;;;;1.89;90.41;94629.69;5075036;28;20036;-75
2020/12/06 04:36:31;;;;;;;36.53;19.50;;;;;;;1.90;90.43;94633.84;5074790;28;20477;-75
2020/12/06 04:38:57;;;;;;;36.83;19.20;;;;;;;1.92;90.38;94639.63;5074611;28;20036;-75
2020/12/06 04:41:27;;;;;;;40.92;19.20;;;;;;;1.94;90.37;94635.03;5074972;28;20048;-75
2020/12/06 04:43:53;;;;;;;36.40;20.40;;;;;;;1.96;90.40;94645.16;5074814;28;20405;-75
2020/12/06 04:46:20;;;;;;;40.95;20.83;;;;;;;1.97;90.32;94646.75;5074653;28;20473;-75
2020/12/06 04:49:01;;;;;;;38.00;19.45;;;;;;;1.97;90.45;94644.16;5074342;28;20476;-75
2020/12/06 04:51:28;;;;;;;35.40;18.92;;;;;;;1.96;90.49;94642.59;5074989;28;20036;-75
2020/12/06 04:54:02;;;;;;;35.60;18.73;;;;;;;1.96;90.42;94645.94;5074439;28;20449;-75
2020/12/06 04:56:29;;;;;;;35.25;18.85;;;;;;;1.98;90.42;94641.38;5067532;28;20049;-75
2020/12/06 04:59:00;;;;;;;34.88;19.05;;;;;;;1.98;90.55;94641.38;5036510;28;20045;-76
2020/12/06 05:01:34;;;;;;;36.42;19.38;;;;;;;1.99;90.57;94642.94;5019990;28;20033;-76
2020/12/06 05:04:08;;;;;;;38.70;19.57;;;;;;;1.99;90.41;94640.34;5053371;28;20531;-75
2020/12/06 05:06:39;;;;;;;38.20;19.17;;;;;;;2.00;90.61;94641.16;5054307;28;20041;-75
2020/12/06 05:09:12;;;;;;;37.20;19.30;;;;;;;2.02;90.41;94639.94;5054254;28;20025;-75
2020/12/06 05:11:40;;;;;;;35.90;18.05;;;;;;;2.03;90.38;94648.50;5054155;28;20040;-75
2020/12/06 05:14:06;;;;;;;35.00;19.23;;;;;;;2.02;90.32;94645.13;5053205;28;20462;-75
2020/12/06 05:16:34;;;;;;;37.70;20.08;;;;;;;2.04;90.34;94637.16;5053917;28;20032;-75
2020/12/06 05:19:01;;;;;;;42.20;21.00;;;;;;;2.04;90.27;94632.00;5053905;28;20033;-75
2020/12/06 05:21:33;;;;;;;46.83;22.40;;;;;;;2.02;90.23;94634.78;5053187;28;20045;-75
2020/12/06 05:23:59;;;;;;;49.35;24.52;;;;;;;2.01;90.48;94653.06;5053076;28;20037;-75
2020/12/06 05:26:27;;;;;;;53.58;24.55;;;;;;;1.99;90.36;94652.50;5054364;28;20045;-76
2020/12/06 05:28:54;;;;;;;53.33;25.40;;;;;;;1.96;90.44;94650.34;5043438;28;20052;-76
2020/12/06 05:31:23;;;;;;;64.72;27.23;;;;;;;1.91;90.63;94653.56;5053187;28;20052;-76
2020/12/06 05:33:50;;;;;;;67.88;28.10;;;;;;;1.89;90.84;94652.97;5053862;28;20048;-76
2020/12/06 05:36:16;;;;;;;64.05;27.85;;;;;;;1.88;91.11;94651.38;5054172;28;20508;-76
2020/12/06 05:38:43;;;;;;;70.30;29.08;;;;;;;1.87;91.04;94639.47;5054023;28;20397;-75
2020/12/06 05:41:09;;;;;;;71.82;28.15;;;;;;;1.86;91.11;94647.41;5053483;28;20044;-75
2020/12/06 05:43:36;;;;;;;66.78;28.27;;;;;;;1.83;91.16;94648.63;5053469;28;20041;-75
2020/12/06 05:46:07;;;;;;;66.85;28.00;;;;;;;1.79;91.28;94658.56;5053915;28;20500;-75
2020/12/06 05:48:34;;;;;;;67.85;27.58;;;;;;;1.77;91.28;94663.16;5052121;28;20503;-75
2020/12/06 05:51:02;;;;;;;71.28;29.65;;;;;;;1.78;91.41;94659.56;5053093;28;20037;-75
2020/12/06 05:53:29;;;;;;;76.93;27.70;;;;;;;1.78;91.56;94654.38;5053370;28;20041;-75
2020/12/06 05:56:08;;;;;;;64.68;27.40;;;;;;;1.78;91.78;94651.81;5035468;28;20033;-75
2020/12/06 05:58:34;;;;;;;65.28;25.65;;;;;;;1.78;91.53;94654.38;5053474;28;20045;-76
2020/12/06 06:01:01;;;;;;;53.00;23.50;;;;;;;1.78;91.53;94649.22;5053254;28;20059;-75
2020/12/06 06:03:32;;;;;;;50.88;23.60;;;;;;;1.79;91.66;94660.38;5053186;28;20060;-75
2020/12/06 06:06:01;;;;;;;68.38;24.02;;;;;;;1.79;91.59;94655.19;5053347;28;20404;-76
2020/12/06 06:08:28;;;;;;;60.20;23.15;;;;;;;1.76;91.62;94665.94;5053174;28;20040;-76
2020/12/06 06:11:20;;;;;;;54.17;22.40;;;;;;;1.74;91.63;94670.50;5053449;28;20033;-76
2020/12/06 06:13:51;;;;;;;58.78;21.80;;;;;;;1.73;91.56;94672.31;5044488;28;20036;-76
2020/12/06 06:16:19;;;;;;;69.68;23.70;;;;;;;1.73;91.55;94680.06;5053267;28;20457;-76
2020/12/06 06:18:47;;;;;;;54.88;21.70;;;;;;;1.76;91.51;94663.34;5053042;28;20037;-76
2020/12/06 06:21:15;;;;;;;69.95;23.70;;;;;;;1.78;91.51;94653.59;5052261;28;20053;-76
2020/12/06 06:23:43;;;;;;;93.43;25.80;;;;;;;1.79;91.45;94650.81;5053075;28;20041;-76
2020/12/06 06:26:11;;;;;;;70.35;24.60;;;;;;;1.79;91.59;94655.19;5052866;28;20033;-76
2020/12/06 06:28:37;;;;;;;88.38;25.05;;;;;;;1.78;91.52;94675.06;5052794;28;20037;-76
2020/12/06 06:31:04;;;;;;;79.20;24.48;;;;;;;1.75;91.49;94688.41;5052604;28;20049;-76
2020/12/06 06:33:34;;;;;;;132.95;32.05;;;;;;;1.71;91.43;94699.38;5052919;28;20394;-77
2020/12/06 06:36:01;;;;;;;64.00;24.42;;;;;;;1.69;91.59;94703.94;5052972;28;20044;-76
2020/12/06 06:38:27;;;;;;;67.13;24.23;;;;;;;1.72;91.69;94711.28;5052815;28;20037;-76
2020/12/06 06:40:55;;;;;;;58.10;22.30;;;;;;;1.76;91.76;94712.44;5053197;28;20037;-76
2020/12/06 06:43:26;;;;;;;57.08;22.42;;;;;;;1.81;91.69;94715.22;5052842;28;20397;-77
2020/12/06 06:45:54;;;;;;;61.30;21.92;;;;;;;1.85;91.64;94713.81;5035864;28;20052;-76
2020/12/06 06:48:21;;;;;;;61.10;22.63;;;;;;;1.90;91.52;94720.94;5052766;28;20045;-77
2020/12/06 06:50:48;;;;;;;62.47;22.05;;;;;;;1.92;91.37;94713.78;5052905;28;20037;-77
2020/12/06 06:53:16;;;;;;;57.75;20.52;;;;;;;1.93;91.43;94715.34;5041175;28;20041;-77
2020/12/06 06:55:54;;;;;;;59.55;21.88;;;;;;;1.95;91.34;94716.75;5052422;28;20481;-77
2020/12/06 06:58:26;;;;;;;62.88;20.75;;;;;;;1.97;91.33;94726.88;5034849;28;20045;-76
2020/12/06 07:01:18;;;;;;;59.65;21.60;;;;;;;1.99;91.28;94727.47;5054579;28;20044;-76
2020/12/06 07:03:47;;;;;;;73.32;23.95;;;;;;;1.99;91.20;94723.06;5056803;28;20047;-77
2020/12/06 07:06:46;;;;;;;90.35;37.08;;;;;;;1.96;91.21;94725.28;5056706;28;20048;-77
2020/12/06 07:09:21;;;;;;;74.50;31.20;;;;;;;1.91;91.13;94730.28;5044165;28;20469;-76
2020/12/06 07:11:49;;;;;;;63.17;24.70;;;;;;;1.91;91.23;94741.44;5056453;28;20037;-77
2020/12/06 07:14:15;;;;;;;56.65;20.58;;;;;;;1.93;91.40;94736.03;5055407;28;20036;-77
2020/12/06 07:16:41;;;;;;;55.38;20.67;;;;;;;1.93;91.33;94729.09;5056223;28;20385;-77
2020/12/06 07:19:08;;;;;;;53.97;20.60;;;;;;;1.96;91.22;94720.13;5057062;28;20037;-76
2020/12/06 07:21:36;;;;;;;50.13;19.73;;;;;;;1.98;91.28;94720.72;5055508;28;20478;-76
2020/12/06 07:24:04;;;;;;;56.22;20.83;;;;;;;2.02;91.27;94721.88;5056211;28;20049;-76
2020/12/06 07:26:31;;;;;;;60.40;21.58;;;;;;;2.02;91.19;94721.88;5056103;28;20032;-76
2020/12/06 07:28:58;;;;;;;53.30;21.02;;;;;;;2.02;91.14;94730.44;5038444;28;20048;-76
2020/12/06 07:31:26;;;;;;;49.15;19.25;;;;;;;2.03;91.06;94731.22;5055971;28;20488;-77
2020/12/06 07:33:52;;;;;;;46.67;19.65;;;;;;;2.02;90.64;94725.25;5056512;28;20063;-76
2020/12/06 07:36:19;;;;;;;47.30;19.40;;;;;;;2.03;90.83;94719.06;5056050;28;20064;-77
2020/12/06 07:38:45;;;;;;;43.58;18.88;;;;;;;2.06;91.01;94730.81;5056084;28;20041;-76
2020/12/06 07:41:12;;;;;;;54.28;22.15;;;;;;;2.08;91.07;94730.59;5054607;28;20049;-77
2020/12/06 07:43:39;;;;;;;52.38;21.60;;;;;;;2.08;91.12;94726.25;5055877;28;20469;-76
2020/12/06 07:46:13;;;;;;;62.17;22.33;;;;;;;2.09;90.98;94727.81;5055075;28;20076;-76
2020/12/06 07:48:39;;;;;;;;;;;;;;;2.08;90.71;94725.41;5056346;28;20489;-76
2020/12/06 07:51:05;;;;;;;63.20;21.70;;;;;;;2.07;90.71;94723.84;5055084;28;19916;-76
2020/12/06 07:53:50;;;;;;;57.40;21.25;;;;;;;2.07;90.65;94727.22;5054754;28;20590;-76
2020/12/06 07:56:21;;;;;;;66.90;23.15;;;;;;;2.08;91.02;94731.41;5055286;28;20049;-76
2020/12/06 07:59:00;;;;;;;60.05;23.27;;;;;;;2.09;90.92;94738.16;5056018;28;20053;-76
2020/12/06 08:01:27;;;;;;;70.95;24.60;;;;;;;2.03;90.86;94742.34;5055709;28;20389;-76
2020/12/06 08:03:56;;;;;;;79.47;26.23;;;;;;;2.02;90.98;94756.28;5055415;28;20037;-76
2020/12/06 08:06:26;;;;;;;80.35;28.55;;;;;;;1.97;90.88;94753.50;5054100;28;20052;-76
2020/12/06 08:08:58;;;;;;;66.68;26.92;;;;;;;1.95;91.25;94746.97;5054310;28;20470;-76
2020/12/06 08:11:32;;;;;;;64.75;26.05;;;;;;;1.98;91.29;94741.41;5053857;28;20055;-77
2020/12/06 08:13:58;;;;;;;134.45;32.10;;;;;;;1.95;91.06;94742.59;5055500;28;20040;-76
2020/12/06 08:16:25;;;;;;;72.05;28.73;;;;;;;1.90;91.11;94732.06;5037405;28;20037;-76
2020/12/06 08:19:09;;;;;;;67.88;27.60;;;;;;;1.87;91.54;94740.25;5037747;28;20393;-77
2020/12/06 08:21:41;;;;;;;71.57;29.13;;;;;;;1.82;91.49;94735.69;5055214;28;20048;-77
2020/12/06 08:24:23;;;;;;;233.30;37.67;;;;;;;1.79;91.40;94750.81;5055027;28;20048;-77
2020/12/06 08:26:51;;;;;;;67.65;27.25;;;;;;;1.72;91.35;94750.84;5055255;28;20064;-76
2020/12/06 08:29:36;;;;;;;318.02;47.88;;;;;;;1.74;92.08;94748.03;5054818;28;20037;-77
2020/12/06 08:32:03;;;;;;;62.88;27.92;;;;;;;1.77;92.04;94738.09;5054940;28;20044;-76
2020/12/06 08:34:30;;;;;;;70.15;30.65;;;;;;;1.83;91.71;94747.63;5055024;28;20029;-76
2020/12/06 08:37:13;;;;;;;68.53;28.33;;;;;;;1.88;91.98;94747.00;5037486;28;20040;-76
2020/12/06 08:39:39;;;;;;;78.85;29.63;;;;;;;1.92;91.78;94752.56;5054805;28;20381;-77
2020/12/06 08:42:26;;;;;;;88.60;32.65;;;;;;;1.89;91.97;94742.59;5054814;28;20488;-77
2020/12/06 08:45:00;;;;;;;127.25;35.00;;;;;;;1.86;91.78;94737.88;5053913;28;20060;-76
2020/12/06 08:47:45;;;;;;;60.57;28.00;;;;;;;1.86;92.04;94722.34;5104755;27;801512;-77
2020/12/06 08:50:14;;;;;;;63.30;29.05;;;;;;;1.90;92.03;94716.56;5079494;28;20278;-77
2020/12/06 08:52:41;;;;;;;67.72;28.15;;;;;;;1.93;92.06;94710.19;5095673;28;20036;-77
2020/12/06 08:55:44;;;;;;;77.25;31.00;;;;;;;1.95;91.87;94708.19;5107134;28;20491;-77
2020/12/06 08:58:27;;;;;;;65.13;28.35;;;;;;;2.00;91.83;94708.38;5100323;28;20036;-77
2020/12/06 09:00:53;;;;;;;74.95;30.65;;;;;;;2.03;91.71;94706.16;5105584;28;20044;-77
2020/12/06 09:03:19;;;;;;;153.55;36.75;;;;;;;2.08;91.79;94715.06;5096869;28;20050;-77
2020/12/06 09:05:45;;;;;;;143.18;39.28;;;;;;;2.05;91.65;94713.72;5094672;28;20037;-76
2020/12/06 09:08:12;;;;;;;106.40;31.38;;;;;;;2.00;91.57;94718.72;5102419;28;20036;-76
2020/12/06 09:10:38;;;;;;;82.07;31.27;;;;;;;1.94;91.44;94715.16;5103373;28;20036;-76
2020/12/06 09:13:04;;;;;;;72.95;29.98;;;;;;;1.93;91.72;94723.09;5078891;28;20039;-76
2020/12/06 09:15:30;;;;;;;95.47;40.28;;;;;;;1.95;91.81;94737.44;5095274;28;20037;-76
2020/12/06 09:17:56;;;;;;;86.40;36.17;;;;;;;2.00;92.08;94737.59;5105276;28;20050;-76
2020/12/06 09:20:22;;;;;;;71.60;28.55;;;;;;;2.04;92.04;94745.75;5098700;28;20036;-76
2020/12/06 09:22:48;;;;;;;73.72;30.58;;;;;;;2.01;91.93;94744.34;5099220;28;20044;-76
2020/12/06 09:25:15;;;;;;;74.80;31.42;;;;;;;2.00;92.13;94740.19;5099363;28;20460;-76
2020/12/06 09:27:41;;;;;;;66.32;28.27;;;;;;;2.03;92.02;94744.13;5098362;28;20036;-77
2020/12/06 09:30:07;;;;;;;53.85;25.77;;;;;;;2.08;92.11;94752.09;5100947;28;20366;-76
2020/12/06 09:32:33;;;;;;;49.17;22.27;;;;;;;2.13;92.41;94759.22;5102791;28;20032;-76
2020/12/06 09:34:59;;;;;;;52.95;21.98;;;;;;;2.15;92.29;94755.44;5094450;28;20047;-76
2020/12/06 09:37:25;;;;;;;66.70;30.35;;;;;;;2.15;91.96;94755.44;5103155;28;20044;-76
2020/12/06 09:39:51;;;;;;;51.00;23.20;;;;;;;2.11;91.64;94754.25;5083924;28;20036;-77
2020/12/06 09:42:18;;;;;;;60.25;24.65;;;;;;;2.06;91.92;94766.19;5097781;28;20028;-76
2020/12/06 09:44:44;;;;;;;69.10;31.63;;;;;;;2.04;92.11;94766.44;5098360;28;20398;-76
2020/12/06 09:47:10;;;;;;;70.53;31.63;;;;;;;2.03;92.23;94759.66;5098420;28;20068;-76
2020/12/06 09:49:36;;;;;;;65.60;28.02;;;;;;;2.04;92.19;94756.09;5099389;28;20052;-76
2020/12/06 09:52:03;;;;;;;54.53;22.88;;;;;;;2.08;92.10;94749.50;5105779;28;20476;-76
2020/12/06 09:54:29;;;;;;;74.18;29.50;;;;;;;2.13;92.52;94752.25;5100620;28;20043;-76
2020/12/06 09:56:55;;;;;;;77.97;36.15;;;;;;;2.12;91.91;94742.09;5092397;28;20040;-76
2020/12/06 09:59:21;;;;;;;51.70;22.95;;;;;;;2.13;92.20;94738.53;5086768;28;20035;-76
2020/12/06 10:01:47;;;;;;;45.75;21.02;;;;;;;2.17;92.17;94737.91;5086206;28;20029;-76
2020/12/06 10:04:13;;;;;;;59.85;26.33;;;;;;;2.25;92.36;94731.72;5087330;28;20036;-76
2020/12/06 10:06:40;;;;;;;63.30;31.88;;;;;;;2.29;91.98;94732.88;5084832;28;20040;-76
2020/12/06 10:09:06;;;;;;;45.58;21.00;;;;;;;2.35;92.64;94744.97;5085679;28;20036;-76
2020/12/06 10:11:32;;;;;;;87.50;40.75;;;;;;;2.35;91.95;94762.28;5072281;28;20041;-75
2020/12/06 10:13:58;;;;;;;52.72;23.35;;;;;;;2.28;91.60;94767.50;5085715;28;20366;-76
2020/12/06 10:16:24;;;;;;;58.95;27.75;;;;;;;2.23;91.76;94769.91;5081754;28;20028;-75
2020/12/06 10:18:54;;;;;;;38.92;19.50;;;;;;;2.24;92.16;94772.28;5083577;28;20048;-76
2020/12/06 10:21:20;;;;;;;70.18;40.30;;;;;;;2.28;92.19;94774.47;5090451;28;20472;-76
2020/12/06 10:23:46;;;;;;;42.33;21.52;;;;;;;2.28;91.95;94771.88;5082668;28;20036;-75
2020/12/06 10:26:12;;;;;;;37.90;18.48;;;;;;;2.29;92.20;94776.03;5085736;28;20040;-75
2020/12/06 10:28:39;;;;;;;36.17;18.73;;;;;;;2.31;91.95;94753.34;5087354;28;20033;-75
2020/12/06 10:31:05;;;;;;;49.47;23.65;;;;;;;2.28;91.46;94746.00;5084245;28;20041;-75
2020/12/06 10:33:31;;;;;;;42.50;23.17;;;;;;;2.27;91.84;94732.28;5084682;28;20051;-75
2020/12/06 10:35:57;;;;;;;40.33;22.17;;;;;;;2.27;91.57;94728.91;5089540;28;20049;-76
2020/12/06 10:38:23;;;;;;;34.60;20.10;;;;;;;2.27;91.57;94729.72;5086868;28;20039;-76
2020/12/06 10:40:49;;;;;;;29.23;16.38;;;;;;;2.30;91.21;94734.44;5087456;28;20047;-75
2020/12/06 10:43:15;;;;;;;28.58;14.70;;;;;;;2.31;91.32;94736.06;5084905;28;20484;-75
2020/12/06 10:45:42;;;;;;;29.60;16.20;;;;;;;2.36;91.42;94738.78;5086530;28;20040;-76
2020/12/06 10:48:08;;;;;;;29.70;15.27;;;;;;;2.43;91.72;94731.00;5091129;28;20512;-75
2020/12/06 10:50:34;;;;;;;29.65;14.73;;;;;;;2.52;91.83;94727.16;5089789;28;20049;-74
2020/12/06 10:53:00;;;;;;;25.05;13.55;;;;;;;2.59;91.64;94730.50;5080972;28;20059;-75
2020/12/06 10:55:26;;;;;;;26.33;13.25;;;;;;;2.62;90.90;94722.31;5080237;28;20051;-75
2020/12/06 10:57:53;;;;;;;23.70;13.73;;;;;;;2.63;90.85;94725.69;5090672;28;20044;-75
2020/12/06 11:00:20;;;;;;;23.83;13.45;;;;;;;2.64;90.66;94727.25;5087004;28;20036;-75
2020/12/06 11:02:47;;;;;;;32.63;16.13;;;;;;;2.62;91.05;94731.84;5080265;28;20048;-74
2020/12/06 11:05:13;;;;;;;35.58;16.05;;;;;;;2.61;91.04;94730.28;5082683;28;20059;-74
2020/12/06 11:07:39;;;;;;;24.77;14.27;;;;;;;2.56;91.14;94733.50;5084850;28;20036;-74
2020/12/06 11:10:06;;;;;;;23.00;12.88;;;;;;;2.57;91.28;94736.88;5085835;28;20058;-74
2020/12/06 11:12:32;;;;;;;23.65;12.65;;;;;;;2.57;91.33;94724.72;5085110;28;20036;-76
2020/12/06 11:14:58;;;;;;;22.40;12.73;;;;;;;2.59;91.19;94735.66;5082025;28;20392;-75
2020/12/06 11:17:29;;;;;;;22.98;11.15;;;;;;;2.59;91.04;94722.72;5083025;28;20049;-74
2020/12/06 11:19:57;;;;;;;21.98;12.07;;;;;;;2.65;91.31;94736.63;5087710;28;20043;-76
2020/12/06 11:22:24;;;;;;;22.58;12.82;;;;;;;2.68;91.13;94731.03;5083695;28;20031;-74
2020/12/06 11:24:50;;;;;;;20.60;11.85;;;;;;;2.70;90.83;94731.59;5082716;28;20028;-74
2020/12/06 11:27:16;;;;;;;20.75;10.85;;;;;;;2.75;90.86;94728.38;5087014;28;20488;-74
2020/12/06 11:29:43;;;;;;;19.52;11.95;;;;;;;2.80;91.20;94726.75;5085698;28;20059;-74